Time;durP1;ratioP1;P1;durP2;ratioP2;P2;SDS_P1;SDS_P2;PMS_P1;PMS_P2;Temp;Humidity;BMP_temperature;BMP_pressure;BME280_temperature;BME280_humidity;BME280_pressure;Samples;Min_cycle;Max_cycle;Signal;HPM_P1;HPM_P2
2021/09/03 00:00:33;;;;;;;13.58;6.87;;;;;;;8.68;73.11;100892.98;1720308;83;25691;-64
2021/09/03 00:03:03;;;;;;;11.78;6.90;;;;;;;8.65;73.21;100889.53;1720297;83;26762;-63
2021/09/03 00:05:29;;;;;;;14.68;6.50;;;;;;;8.64;73.23;100881.72;1720213;83;25689;-63
2021/09/03 00:07:56;;;;;;;10.25;6.50;;;;;;;8.62;73.37;100887.39;1720290;83;25745;-64
2021/09/03 00:10:23;;;;;;;11.12;6.55;;;;;;;8.60;73.31;100882.27;1720268;83;25653;-64
2021/09/03 00:12:49;;;;;;;13.72;6.40;;;;;;;8.58;73.12;100879.06;1689764;83;25909;-64
2021/09/03 00:15:17;;;;;;;12.05;6.78;;;;;;;8.59;73.02;100883.91;1720241;83;28027;-63
2021/09/03 00:17:44;;;;;;;11.73;6.95;;;;;;;8.57;73.13;100877.44;1720233;83;25844;-64
2021/09/03 00:20:13;;;;;;;14.35;7.20;;;;;;;8.56;73.17;100877.20;1720242;83;25757;-64
2021/09/03 00:22:40;;;;;;;10.72;7.67;;;;;;;8.56;72.95;100879.06;1720324;83;26315;-64
2021/09/03 00:25:09;;;;;;;14.33;7.10;;;;;;;8.55;73.27;100871.52;1720279;83;25777;-63
2021/09/03 00:27:36;;;;;;;15.48;7.85;;;;;;;8.53;73.03;100871.53;1720322;83;28213;-64
2021/09/03 00:30:06;;;;;;;14.75;7.40;;;;;;;8.52;72.98;100865.89;1720196;83;25680;-63
2021/09/03 00:32:32;;;;;;;;;;;;;;;8.49;72.86;100865.90;1722221;83;25743;-63
2021/09/03 00:34:58;;;;;;;17.65;7.08;;;;;;;8.47;73.32;100859.98;1720292;83;25796;-63
2021/09/03 00:37:24;;;;;;;13.78;6.72;;;;;;;8.43;73.09;100860.30;1720386;83;25634;-63
2021/09/03 00:39:51;;;;;;;12.90;6.37;;;;;;;8.40;72.71;100862.17;1720338;83;28015;-63
2021/09/03 00:42:17;;;;;;;13.83;7.00;;;;;;;8.38;72.75;100868.39;1720104;83;25816;-63
2021/09/03 00:44:43;;;;;;;14.23;6.60;;;;;;;8.34;73.20;100860.06;1720330;83;25726;-63
2021/09/03 00:47:10;;;;;;;13.05;6.55;;;;;;;8.32;73.46;100863.55;1687796;83;25766;-64
2021/09/03 00:49:36;;;;;;;11.60;6.20;;;;;;;8.31;73.75;100857.92;1703904;83;25704;-63
2021/09/03 00:52:05;;;;;;;15.05;6.00;;;;;;;8.29;74.03;100856.05;1699770;83;27361;-63
2021/09/03 00:54:33;;;;;;;15.55;7.47;;;;;;;8.27;74.12;100856.85;1694073;83;28883;-63
2021/09/03 00:57:00;;;;;;;14.75;6.85;;;;;;;8.27;74.22;100861.44;1697712;84;25762;-63
2021/09/03 00:59:27;;;;;;;13.98;7.15;;;;;;;8.28;74.86;100865.77;1698681;83;25682;-63
2021/09/03 01:01:53;;;;;;;11.88;6.10;;;;;;;8.28;74.67;100867.11;1698640;84;25782;-63
2021/09/03 01:04:19;;;;;;;14.70;6.42;;;;;;;8.29;74.45;100876.78;1698690;84;28020;-63
2021/09/03 01:06:47;;;;;;;11.38;6.22;;;;;;;8.30;74.40;100867.63;1698669;84;25747;-63
2021/09/03 01:09:13;;;;;;;12.43;5.72;;;;;;;8.31;74.76;100874.61;1698076;84;25743;-63
2021/09/03 01:11:40;;;;;;;12.68;6.58;;;;;;;8.27;74.91;100860.89;1698351;84;25752;-63
2021/09/03 01:14:07;;;;;;;14.35;5.85;;;;;;;8.27;74.63;100868.19;1698617;84;25722;-63
2021/09/03 01:16:33;;;;;;;10.45;5.70;;;;;;;8.26;74.56;100868.73;1698536;84;27318;-63
2021/09/03 01:19:00;;;;;;;11.55;5.85;;;;;;;8.26;74.51;100864.69;1698521;84;25777;-63
2021/09/03 01:21:28;;;;;;;11.00;6.10;;;;;;;8.26;74.54;100865.21;1698694;84;26398;-63
2021/09/03 01:23:55;;;;;;;9.20;5.72;;;;;;;8.25;74.58;100864.41;1698502;84;26780;-63
2021/09/03 01:26:21;;;;;;;11.25;6.20;;;;;;;8.23;74.73;100866.04;1698664;83;25732;-63
2021/09/03 01:28:49;;;;;;;12.55;5.40;;;;;;;8.22;74.94;100863.63;1698616;84;28241;-63
2021/09/03 01:31:16;;;;;;;13.43;6.05;;;;;;;8.23;74.86;100850.42;1698408;84;25683;-64
2021/09/03 01:33:42;;;;;;;14.10;5.67;;;;;;;8.20;74.48;100855.02;1698581;84;25727;-63
2021/09/03 01:36:09;;;;;;;12.35;6.33;;;;;;;8.20;74.59;100846.93;1698535;84;25726;-64
2021/09/03 01:38:37;;;;;;;11.22;5.72;;;;;;;8.18;74.62;100845.86;1698598;84;25748;-64
2021/09/03 01:41:04;;;;;;;14.13;6.37;;;;;;;8.18;74.64;100838.33;1698613;84;27211;-64
2021/09/03 01:43:30;;;;;;;10.85;5.87;;;;;;;8.16;75.18;100831.86;1698450;84;25690;-64
2021/09/03 01:45:56;;;;;;;11.45;5.25;;;;;;;8.15;75.18;100834.28;1698574;83;25793;-64
2021/09/03 01:48:22;;;;;;;9.28;5.87;;;;;;;8.14;75.24;100825.95;1686283;83;25681;-64
2021/09/03 01:50:49;;;;;;;10.80;5.70;;;;;;;8.13;75.24;100826.23;1720277;83;25737;-64
2021/09/03 01:53:15;;;;;;;15.50;5.50;;;;;;;8.11;75.07;100827.06;1713236;83;28550;-64
2021/09/03 01:55:42;;;;;;;11.03;5.22;;;;;;;8.09;74.62;100825.98;1710410;83;25730;-64
2021/09/03 01:58:08;;;;;;;9.90;5.67;;;;;;;8.07;74.71;100822.77;1687924;83;25749;-64
2021/09/03 02:00:34;;;;;;;11.05;5.60;;;;;;;8.04;74.49;100821.98;1710387;83;25726;-63
2021/09/03 02:03:01;;;;;;;9.73;5.65;;;;;;;8.04;74.49;100824.67;1710500;83;25776;-64
2021/09/03 02:05:27;;;;;;;9.35;4.87;;;;;;;8.02;74.92;100823.60;1710495;83;27400;-64
2021/09/03 02:07:53;;;;;;;12.93;5.62;;;;;;;8.02;74.61;100828.20;1710366;83;25726;-64
2021/09/03 02:10:19;;;;;;;10.85;5.55;;;;;;;7.99;74.97;100824.16;1710457;83;25669;-64
2021/09/03 02:12:45;;;;;;;10.38;5.17;;;;;;;7.96;75.28;100820.66;1710437;83;25709;-64
2021/09/03 02:15:12;;;;;;;11.70;5.67;;;;;;;7.93;75.23;100817.72;1687986;83;25848;-64
2021/09/03 02:17:38;;;;;;;16.15;6.25;;;;;;;7.89;75.54;100807.25;1710482;83;27424;-63
2021/09/03 02:20:07;;;;;;;14.28;6.25;;;;;;;7.89;76.19;100805.91;1710343;83;25801;-63
2021/09/03 02:22:34;;;;;;;9.83;5.45;;;;;;;7.89;76.02;100799.97;1710394;83;25768;-63
2021/09/03 02:25:00;;;;;;;10.72;5.28;;;;;;;7.88;76.04;100801.04;1710384;83;25711;-63
2021/09/03 02:27:26;;;;;;;11.28;5.58;;;;;;;7.88;75.79;100808.33;1710480;83;25714;-63
2021/09/03 02:29:53;;;;;;;14.55;5.72;;;;;;;7.86;75.68;100805.36;1710437;83;27338;-63
2021/09/03 02:32:20;;;;;;;12.03;5.10;;;;;;;7.83;75.59;100805.94;1710470;83;25699;-64
2021/09/03 02:34:47;;;;;;;8.23;4.85;;;;;;;7.81;75.61;100804.03;1710365;83;25745;-63
2021/09/03 02:37:15;;;;;;;12.33;5.92;;;;;;;7.78;75.30;100794.36;1688238;83;26346;-63
2021/09/03 02:39:42;;;;;;;15.48;5.70;;;;;;;7.77;75.43;100796.27;1710497;83;25788;-63
2021/09/03 02:42:08;;;;;;;14.05;5.55;;;;;;;7.75;75.59;100790.36;1710430;83;29609;-63
2021/09/03 02:44:35;;;;;;;9.00;5.53;;;;;;;7.74;75.42;100791.98;1710038;83;26475;-63
2021/09/03 02:47:02;;;;;;;10.65;5.85;;;;;;;7.73;75.64;100789.00;1709992;83;25695;-63
2021/09/03 02:53:28;;;;;;;9.55;5.35;;;;;;;7.69;75.89;100784.72;1709958;83;25794;-63
2021/09/03 02:55:55;;;;;;;11.53;6.22;;;;;;;7.67;75.37;100780.16;1710173;83;27208;-63
2021/09/03 02:58:22;;;;;;;12.03;6.87;;;;;;;7.65;76.08;100777.73;1710230;83;25745;-63
2021/09/03 03:00:48;;;;;;;14.20;6.47;;;;;;;7.63;76.34;100778.56;1710224;83;26400;-63
2021/09/03 03:03:15;;;;;;;11.57;7.08;;;;;;;7.62;76.67;100770.77;1710058;83;25730;-63
2021/09/03 03:05:41;;;;;;;14.07;7.20;;;;;;;7.60;76.84;100771.03;1710252;83;25734;-63
2021/09/03 03:08:07;;;;;;;13.20;6.25;;;;;;;7.62;77.64;100768.06;1710292;83;28143;-63
2021/09/03 03:10:34;;;;;;;12.18;6.35;;;;;;;7.62;77.36;100766.72;1710213;83;25801;-63
2021/09/03 03:13:09;;;;;;;11.70;6.60;;;;;;;7.61;77.17;100768.63;1710300;83;25761;-63
2021/09/03 03:15:29;;;;;;;18.80;6.05;;;;;;;7.61;77.75;100763.75;1708861;83;26407;-63
2021/09/03 03:17:55;;;;;;;12.10;6.42;;;;;;;7.59;77.87;100760.55;1710355;83;25725;-63
2021/09/03 03:20:22;;;;;;;11.93;6.45;;;;;;;7.57;78.34;100751.94;1710403;83;27368;-63
2021/09/03 03:22:49;;;;;;;16.65;6.62;;;;;;;7.58;79.01;100753.56;1710415;83;25706;-63
2021/09/03 03:25:17;;;;;;;11.22;6.95;;;;;;;7.57;78.92;100746.01;1710383;83;26369;-63
2021/09/03 03:27:43;;;;;;;13.32;7.10;;;;;;;7.59;79.33;100742.49;1710628;83;25649;-63
2021/09/03 03:30:11;;;;;;;14.87;6.53;;;;;;;7.60;79.41;100740.08;1688149;83;26357;-63
2021/09/03 03:32:38;;;;;;;13.25;6.50;;;;;;;7.60;79.29;100734.69;1710520;83;27344;-63
2021/09/03 03:35:06;;;;;;;12.98;6.78;;;;;;;7.61;79.33;100732.80;1710458;83;25720;-63
2021/09/03 03:37:32;;;;;;;15.58;7.30;;;;;;;7.63;79.57;100727.95;1650773;86;25739;-63
2021/09/03 03:39:59;;;;;;;12.80;6.67;;;;;;;7.64;79.60;100726.34;1650910;86;26482;-63
2021/09/03 03:42:26;;;;;;;11.95;6.42;;;;;;;7.64;80.05;100720.12;1650768;86;25711;-63
2021/09/03 03:44:52;;;;;;;12.68;6.53;;;;;;;7.66;79.74;100713.92;1650962;86;28221;-63
2021/09/03 03:47:18;;;;;;;13.93;7.12;;;;;;;7.65;80.16;100715.02;1650938;86;33676;-63
2021/09/03 03:49:45;;;;;;;13.80;6.92;;;;;;;7.65;80.04;100715.81;1650850;86;25695;-63
2021/09/03 03:52:17;;;;;;;12.47;7.15;;;;;;;7.67;79.91;100714.19;1650712;86;25903;-63
2021/09/03 03:54:44;;;;;;;15.65;7.03;;;;;;;7.67;80.24;100710.95;1650714;86;25872;-63
2021/09/03 03:57:10;;;;;;;16.05;7.37;;;;;;;7.70;80.30;100720.38;1650938;86;27507;-63
2021/09/03 03:59:36;;;;;;;13.90;7.58;;;;;;;7.70;80.23;100710.95;1650815;86;25755;-64
2021/09/03 04:02:03;;;;;;;12.65;6.45;;;;;;;7.70;80.35;100713.64;1677247;83;25746;-63
2021/09/03 04:04:29;;;;;;;13.80;7.50;;;;;;;7.70;80.36;100715.54;1710513;83;25741;-63
2021/09/03 04:06:56;;;;;;;14.68;7.97;;;;;;;7.70;80.45;100704.22;1710613;83;25690;-63
2021/09/03 04:09:23;;;;;;;13.50;7.22;;;;;;;7.71;80.29;100705.80;1710585;83;28209;-63
2021/09/03 04:11:50;;;;;;;18.17;7.97;;;;;;;7.73;80.43;100700.14;1710473;83;25761;-63
2021/09/03 04:14:18;;;;;;;14.70;7.95;;;;;;;7.73;80.61;100698.28;1710544;83;25767;-63
2021/09/03 04:16:46;;;;;;;13.43;7.62;;;;;;;7.74;80.51;100696.38;1710535;83;26363;-63
2021/09/03 04:19:13;;;;;;;13.18;7.97;;;;;;;7.76;80.97;100692.86;1710536;83;25694;-64
2021/09/03 04:21:40;;;;;;;14.65;7.60;;;;;;;7.77;80.92;100693.13;1710477;83;27430;-63
2021/09/03 04:24:09;;;;;;;13.53;7.80;;;;;;;7.79;81.00;100691.75;1710359;83;25714;-63
2021/09/03 04:26:35;;;;;;;13.75;7.90;;;;;;;7.80;81.18;100686.64;1710553;83;25765;-63
2021/09/03 04:29:02;;;;;;;11.50;7.67;;;;;;;7.82;81.06;100685.02;1710552;83;26492;-63
2021/09/03 04:31:29;;;;;;;16.40;8.58;;;;;;;7.84;81.11;100688.23;1710565;83;25667;-63
2021/09/03 04:33:55;;;;;;;15.28;7.58;;;;;;;7.85;81.23;100687.95;1710555;83;27380;-63
2021/09/03 04:36:21;;;;;;;15.03;7.37;;;;;;;7.85;81.34;100682.56;1710463;83;25803;-63
2021/09/03 04:38:48;;;;;;;17.55;8.40;;;;;;;7.87;81.64;100679.59;1710565;83;25730;-63
2021/09/03 04:41:14;;;;;;;15.63;7.42;;;;;;;7.88;81.71;100678.48;1688132;83;25705;-63
2021/09/03 04:43:40;;;;;;;16.30;9.05;;;;;;;7.91;81.75;100673.89;1710515;83;25678;-63
2021/09/03 04:46:06;;;;;;;12.68;7.10;;;;;;;7.94;82.01;100677.92;1710575;83;27360;-63
2021/09/03 04:48:33;;;;;;;15.32;7.42;;;;;;;7.94;82.16;100677.37;1710337;83;25727;-63
2021/09/03 04:50:59;;;;;;;14.95;8.10;;;;;;;7.96;82.03;100671.71;1710511;83;29990;-63
2021/09/03 04:53:25;;;;;;;10.72;7.10;;;;;;;8.01;82.18;100677.05;1710486;83;26561;-63
2021/09/03 04:55:53;;;;;;;12.63;7.70;;;;;;;8.05;82.24;100676.73;1710508;83;25698;-63
2021/09/03 04:58:20;;;;;;;12.68;7.05;;;;;;;8.10;82.33;100675.34;1710459;83;27383;-63
2021/09/03 05:00:47;;;;;;;12.70;7.97;;;;;;;8.15;82.40;100673.95;1710463;83;25809;-63
2021/09/03 05:03:13;;;;;;;15.63;8.20;;;;;;;8.21;82.58;100672.84;1687891;83;25721;-63
2021/09/03 05:05:40;;;;;;;15.23;7.90;;;;;;;8.29;82.80;100671.43;1710394;83;25983;-63
2021/09/03 05:08:07;;;;;;;12.03;8.08;;;;;;;8.36;82.79;100663.81;1710458;83;25623;-63
2021/09/03 05:10:34;;;;;;;17.35;7.80;;;;;;;8.45;82.88;100665.36;1710578;83;28307;-63
2021/09/03 05:13:00;;;;;;;13.78;7.47;;;;;;;8.55;83.05;100671.20;1710323;83;25703;-63
2021/09/03 05:15:41;;;;;;;13.72;7.95;;;;;;;8.64;83.15;100661.94;1710457;83;25696;-64
2021/09/03 05:18:07;;;;;;;12.45;7.33;;;;;;;8.73;83.33;100668.30;1710549;83;25727;-69
2021/09/03 05:20:35;;;;;;;18.80;7.75;;;;;;;8.84;83.40;100665.75;1710489;83;25797;-69
2021/09/03 05:23:02;;;;;;;16.05;8.03;;;;;;;8.96;83.42;100668.04;1710518;83;27381;-69
2021/09/03 05:25:28;;;;;;;13.60;7.62;;;;;;;9.07;83.52;100661.95;1710325;83;25786;-69
2021/09/03 05:27:55;;;;;;;15.05;8.68;;;;;;;9.19;83.63;100659.63;1710497;83;25727;-72
2021/09/03 05:30:21;;;;;;;10.45;7.42;;;;;;;9.31;83.63;100661.91;1710454;83;25742;-72
2021/09/03 05:32:47;;;;;;;13.90;7.28;;;;;;;9.43;83.66;100663.65;1710465;83;25788;-69
2021/09/03 05:35:14;;;;;;;12.30;6.78;;;;;;;9.56;83.78;100667.50;1710400;83;27376;-70
2021/09/03 05:37:43;;;;;;;10.23;6.62;;;;;;;9.69;83.73;100665.41;1710435;83;25744;-68
2021/09/03 05:40:11;;;;;;;13.83;7.12;;;;;;;9.82;83.87;100659.00;1653239;86;26347;-68
2021/09/03 05:42:37;;;;;;;12.53;7.17;;;;;;;9.95;83.72;100659.60;1698439;84;25722;-68
2021/09/03 05:45:05;;;;;;;12.10;6.67;;;;;;;10.10;83.55;100656.64;1697867;84;25861;-68
2021/09/03 05:47:32;;;;;;;22.27;7.55;;;;;;;10.24;83.60;100655.88;1697644;84;27555;-68
2021/09/03 05:49:58;;;;;;;11.45;7.08;;;;;;;10.39;83.60;100654.27;1686615;82;25757;-67
2021/09/03 05:52:25;;;;;;;15.32;7.20;;;;;;;10.53;83.24;100647.52;1673642;85;25813;-68
2021/09/03 05:54:51;;;;;;;11.75;6.50;;;;;;;10.70;83.07;100650.98;1672244;85;26295;-68
2021/09/03 05:57:17;;;;;;;15.78;6.87;;;;;;;10.89;83.05;100643.31;1671893;85;25751;-70
2021/09/03 05:59:43;;;;;;;12.50;6.40;;;;;;;11.09;83.35;100639.38;1671398;85;28494;-68
2021/09/03 06:02:09;;;;;;;14.83;6.40;;;;;;;11.28;83.06;100643.30;1671121;85;26499;-67
2021/09/03 06:04:35;;;;;;;12.70;6.65;;;;;;;11.47;82.49;100643.93;1671694;85;31011;-67
2021/09/03 06:07:02;;;;;;;10.05;6.17;;;;;;;11.67;82.30;100644.02;1672337;85;25991;-68
2021/09/03 06:09:28;;;;;;;15.18;6.03;;;;;;;11.86;81.61;100638.97;1671103;85;25831;-69
2021/09/03 06:11:55;;;;;;;16.12;6.75;;;;;;;12.05;81.14;100640.15;1671195;85;27355;-68
2021/09/03 06:14:22;;;;;;;9.15;5.47;;;;;;;12.25;81.16;100639.62;1671371;85;25773;-68
2021/09/03 06:16:50;;;;;;;11.45;6.22;;;;;;;12.47;81.00;100636.05;1671729;85;25849;-68
2021/09/03 06:19:17;;;;;;;12.70;6.30;;;;;;;12.70;80.83;100634.06;1671757;85;25765;-69
2021/09/03 06:21:44;;;;;;;13.13;5.60;;;;;;;12.91;79.85;100634.84;1671928;85;25842;-68
2021/09/03 06:27:02;;;;;;;11.63;4.87;;;;;;;13.45;79.07;100635.98;1673215;85;26423;-69
2021/09/03 06:29:40;;;;;;;10.35;6.25;;;;;;;13.73;79.07;100633.70;1673089;85;25724;-68
2021/09/03 06:32:18;;;;;;;11.18;5.30;;;;;;;13.98;78.89;100629.34;1673229;85;26304;-69
2021/09/03 06:34:54;;;;;;;6.50;4.40;;;;;;;14.28;78.23;100628.05;1676432;85;25815;-69
2021/09/03 06:37:22;;;;;;;15.45;5.25;;;;;;;14.55;76.90;100621.94;1673114;85;27487;-69
2021/09/03 06:39:49;;;;;;;12.47;4.83;;;;;;;14.83;76.66;100623.68;1673665;85;25691;-68
2021/09/03 06:42:16;;;;;;;12.10;5.30;;;;;;;15.08;75.19;100617.02;1737063;82;25770;-69
2021/09/03 06:44:43;;;;;;;10.20;4.70;;;;;;;15.30;75.19;100616.68;1737049;82;26416;-69
2021/09/03 06:47:14;;;;;;;9.45;4.65;;;;;;;15.53;74.03;100616.90;1736939;82;25729;-70
2021/09/03 06:49:41;;;;;;;10.65;4.92;;;;;;;15.76;73.53;100611.34;1663290;84;27847;-68
2021/09/03 06:52:10;;;;;;;7.55;4.70;;;;;;;15.93;72.61;100610.36;1670547;85;25891;-68
2021/09/03 06:54:38;;;;;;;12.75;4.55;;;;;;;16.11;73.29;100604.73;1695185;84;25769;-68
2021/09/03 06:57:05;;;;;;;8.98;4.20;;;;;;;16.36;72.34;100602.27;1694983;84;25778;-69
2021/09/03 06:59:32;;;;;;;11.03;4.70;;;;;;;16.61;72.58;100608.50;1695009;84;25816;-69
2021/09/03 07:01:59;;;;;;;8.88;4.37;;;;;;;16.87;72.05;100585.51;1695014;84;27342;-69
2021/09/03 07:04:27;;;;;;;9.45;3.33;;;;;;;17.21;72.27;100589.42;1695075;84;25900;-68
2021/09/03 07:06:54;;;;;;;8.97;3.77;;;;;;;17.51;69.71;100587.16;1695365;84;25768;-70
2021/09/03 07:09:22;;;;;;;8.18;3.60;;;;;;;17.78;69.70;100580.64;1703883;83;26526;-67
2021/09/03 07:11:48;;;;;;;9.08;3.08;;;;;;;18.06;67.17;100587.44;1687542;83;25741;-65
2021/09/03 07:14:15;;;;;;;10.63;3.20;;;;;;;18.21;65.92;100583.13;1718466;83;28041;-68
2021/09/03 07:16:41;;;;;;;4.97;3.12;;;;;;;18.34;66.06;100581.88;1718423;83;25746;-68
2021/09/03 07:19:08;;;;;;;8.55;3.02;;;;;;;18.57;64.75;100576.54;1718505;83;25737;-67
2021/09/03 07:21:34;;;;;;;7.53;2.52;;;;;;;18.80;63.80;100576.67;1718384;83;27902;-76
2021/09/03 07:24:01;;;;;;;6.17;2.58;;;;;;;18.90;61.44;100580.84;1718699;83;25753;-65
2021/09/03 07:26:30;;;;;;;7.03;2.75;;;;;;;19.00;62.90;100578.91;1723901;82;27172;-66
2021/09/03 07:28:57;;;;;;;7.22;2.40;;;;;;;19.18;62.16;100576.52;1713553;82;25729;-66
2021/09/03 07:31:24;;;;;;;3.90;2.40;;;;;;;19.35;61.30;100573.92;1698851;82;25797;-66
2021/09/03 07:33:51;;;;;;;8.30;2.10;;;;;;;19.56;61.91;100572.19;1707869;84;25749;-66
2021/09/03 07:36:18;;;;;;;7.00;2.55;;;;;;;19.82;59.67;100572.65;1707925;84;25726;-66
2021/09/03 07:38:44;;;;;;;3.40;2.42;;;;;;;19.82;58.88;100566.60;1733529;82;27329;-66
2021/09/03 07:41:11;;;;;;;4.40;2.17;;;;;;;19.88;58.33;100562.37;1688101;85;25665;-66
2021/09/03 07:43:37;;;;;;;4.40;2.02;;;;;;;20.06;58.08;100566.03;1709640;83;25739;-66
2021/09/03 07:46:04;;;;;;;4.42;2.05;;;;;;;20.31;58.90;100563.10;1709821;83;25652;-66
2021/09/03 07:48:30;;;;;;;4.40;1.95;;;;;;;20.59;58.02;100557.03;1709754;83;25794;-66
2021/09/03 07:50:57;;;;;;;3.60;1.67;;;;;;;20.65;56.69;100550.06;1713022;83;27320;-66
2021/09/03 07:53:23;;;;;;;3.80;2.02;;;;;;;20.86;57.19;100549.58;1714530;83;25650;-67
2021/09/03 07:55:49;;;;;;;2.83;2.08;;;;;;;21.10;56.57;100548.30;1714819;83;25658;-66
2021/09/03 07:58:16;;;;;;;6.87;1.90;;;;;;;21.36;55.35;100543.88;1714795;83;25745;-67
2021/09/03 08:00:42;;;;;;;2.15;1.40;;;;;;;21.60;55.45;100546.70;1714849;83;25785;-66
2021/09/03 08:03:09;;;;;;;2.35;1.40;;;;;;;21.83;53.64;100550.67;1714463;83;27349;-66
2021/09/03 08:05:35;;;;;;;3.12;1.45;;;;;;;21.96;53.28;100536.84;1714950;83;25702;-66
2021/09/03 08:08:04;;;;;;;2.98;1.35;;;;;;;22.27;51.86;100547.67;1714917;83;25774;-66
2021/09/03 08:10:32;;;;;;;5.80;1.67;;;;;;;22.41;52.63;100545.05;1714941;83;25739;-66
2021/09/03 08:13:01;;;;;;;3.60;1.80;;;;;;;22.52;48.31;100549.25;1714665;83;25732;-66
2021/09/03 08:15:29;;;;;;;2.85;1.80;;;;;;;22.39;50.17;100544.66;1714494;83;27964;-67
2021/09/03 08:17:56;;;;;;;5.05;1.50;;;;;;;22.49;49.71;100534.29;1714818;83;25809;-68
2021/09/03 08:20:23;;;;;;;2.62;1.72;;;;;;;22.49;49.64;100525.20;1713715;83;26426;-68
2021/09/03 08:22:51;;;;;;;2.80;1.60;;;;;;;22.86;50.35;100520.88;1715042;83;25740;-68
2021/09/03 08:25:19;;;;;;;2.92;1.32;;;;;;;23.20;49.99;100514.33;1715084;83;25784;-69
2021/09/03 08:27:48;;;;;;;4.65;1.52;;;;;;;23.42;48.68;100510.44;1715105;83;27992;-63
2021/09/03 08:30:15;;;;;;;2.58;1.87;;;;;;;23.69;49.29;100502.58;1714938;83;25674;-64
2021/09/03 08:32:42;;;;;;;2.20;1.80;;;;;;;24.00;47.87;100504.98;1715063;83;25785;-65
2021/09/03 08:35:09;;;;;;;2.17;1.35;;;;;;;24.28;47.88;100507.50;1715089;83;25878;-77
2021/09/03 08:37:36;;;;;;;3.65;1.60;;;;;;;24.59;47.43;100507.28;1715073;83;25787;-71
2021/09/03 08:40:04;;;;;;;1.70;1.15;;;;;;;24.79;46.08;100507.58;1715037;83;27378;-72
2021/09/03 08:42:31;;;;;;;3.80;1.13;;;;;;;25.02;45.18;100507.70;1715244;83;25679;-76
2021/09/03 08:44:59;;;;;;;1.92;1.45;;;;;;;25.13;43.87;100499.53;1715027;83;25742;-75
2021/09/03 08:47:26;;;;;;;3.92;1.50;;;;;;;25.14;43.73;100501.70;1715178;83;25788;-75
2021/09/03 08:49:52;;;;;;;4.37;1.40;;;;;;;25.26;43.51;100490.19;1715070;83;25738;-75
2021/09/03 08:52:18;;;;;;;4.15;1.55;;;;;;;25.67;44.27;100492.27;1715057;83;27401;-78
2021/09/03 08:54:45;;;;;;;4.62;1.20;;;;;;;25.95;43.71;100492.47;1715091;83;25967;-78
2021/09/03 08:57:14;;;;;;;2.55;1.30;;;;;;;26.17;42.18;100494.44;1715103;83;25666;-78
2021/09/03 08:59:41;;;;;;;4.28;1.20;;;;;;;26.14;41.77;100489.73;1715119;83;25822;-77
2021/09/03 09:02:18;;;;;;;3.10;1.30;;;;;;;26.28;41.19;100479.88;1714951;83;25674;-75
2021/09/03 09:04:47;;;;;;;2.47;1.32;;;;;;;26.49;41.70;100477.45;1714845;83;27531;-76
2021/09/03 09:07:13;;;;;;;1.70;1.10;;;;;;;26.68;41.29;100473.32;1714971;83;25662;-76
2021/09/03 09:09:44;;;;;;;3.25;1.30;;;;;;;27.03;41.03;100471.27;1713615;83;25769;-78
2021/09/03 09:12:17;;;;;;;2.55;1.25;;;;;;;27.09;39.84;100468.80;1715013;83;25662;-79
2021/09/03 09:15:09;;;;;;;2.45;1.25;;;;;;;26.96;39.47;100463.05;1715065;83;25684;-74
2021/09/03 09:17:42;;;;;;;3.05;1.10;;;;;;;26.97;39.34;100457.08;1714335;83;27317;-71
2021/09/03 09:20:16;;;;;;;4.25;1.10;;;;;;;27.13;39.33;100450.89;1715070;83;25733;-81
2021/09/03 09:22:58;;;;;;;1.98;1.17;;;;;;;27.37;39.67;100454.52;1715034;83;25698;-73
2021/09/03 09:25:34;;;;;;;3.33;1.40;;;;;;;27.39;37.74;100445.77;1715037;83;26563;-71
2021/09/03 09:28:21;;;;;;;1.47;1.00;;;;;;;27.32;39.05;100447.28;1715131;83;25726;-71
2021/09/03 09:30:50;;;;;;;2.83;1.22;;;;;;;27.54;38.59;100438.00;1714385;83;28056;-71
2021/09/03 09:33:20;;;;;;;4.35;1.35;;;;;;;27.80;37.97;100434.96;1715128;83;33189;-71
2021/09/03 09:35:59;;;;;;;2.65;1.22;;;;;;;27.90;37.88;100435.38;1714629;83;25814;-69
2021/09/03 09:38:28;;;;;;;;;;;;;;;28.25;38.59;100435.17;1717545;83;26259;-69
2021/09/03 09:40:57;;;;;;;2.10;1.42;;;;;;;28.60;36.88;100435.67;1715206;83;25671;-70
2021/09/03 09:43:37;;;;;;;2.27;1.30;;;;;;;28.67;35.56;100425.20;1714936;83;28290;-71
2021/09/03 09:46:23;;;;;;;1.60;1.20;;;;;;;28.61;36.83;100433.08;1694351;83;25774;-71
2021/09/03 09:48:57;;;;;;;2.50;1.50;;;;;;;28.78;35.88;100413.81;1714961;83;25746;-70
2021/09/03 09:51:41;;;;;;;0.90;0.88;;;;;;;28.90;35.32;100414.38;1714354;83;27801;-70
2021/09/03 09:54:23;;;;;;;3.45;1.30;;;;;;;28.91;35.86;100411.75;1715022;83;25714;-71
2021/09/03 09:56:59;;;;;;;2.65;1.30;;;;;;;29.27;35.45;100409.54;1714766;83;27988;-71
2021/09/03 09:59:29;;;;;;;1.40;1.07;;;;;;;29.02;34.20;100394.20;1714318;83;25862;-77
2021/09/03 10:01:59;;;;;;;2.08;1.40;;;;;;;28.71;32.01;100384.77;1714993;83;25642;-70
2021/09/03 10:04:29;;;;;;;3.35;1.20;;;;;;;28.26;34.12;100390.84;1714953;83;25758;-71
2021/09/03 10:07:00;;;;;;;2.85;1.17;;;;;;;28.40;34.28;100377.25;1714757;83;25717;-70
2021/09/03 10:09:31;;;;;;;4.42;1.30;;;;;;;28.44;34.41;100380.75;1715090;83;27303;-70
2021/09/03 10:12:00;;;;;;;1.40;1.30;;;;;;;28.42;33.61;100385.97;1714963;83;25718;-70
2021/09/03 10:14:33;;;;;;;4.22;1.30;;;;;;;28.25;33.88;100384.51;1715055;83;25683;-71
2021/09/03 10:17:00;;;;;;;2.62;1.20;;;;;;;28.23;34.14;100377.20;1714782;83;25615;-70
2021/09/03 10:19:31;;;;;;;2.77;1.87;;;;;;;28.38;34.03;100388.80;1714669;83;25856;-71
2021/09/03 10:22:09;;;;;;;2.75;1.67;;;;;;;28.52;33.47;100386.34;1715023;83;27446;-70
2021/09/03 10:24:37;;;;;;;4.25;1.30;;;;;;;28.47;33.98;100366.77;1714911;83;25781;-70
2021/09/03 10:27:07;;;;;;;1.57;1.40;;;;;;;28.76;34.21;100363.38;1714929;83;26237;-70
2021/09/03 10:29:43;;;;;;;1.45;1.35;;;;;;;28.84;34.16;100366.17;1694758;83;27765;-70
2021/09/03 10:32:18;;;;;;;5.12;1.77;;;;;;;29.27;34.56;100367.77;1714192;83;25711;-69
2021/09/03 10:34:53;;;;;;;4.92;1.80;;;;;;;29.64;34.12;100355.25;1693006;83;27066;-69
2021/09/03 10:37:28;;;;;;;2.67;1.92;;;;;;;29.67;33.39;100348.03;1715232;83;26314;-70
2021/09/03 10:40:09;;;;;;;3.02;2.30;;;;;;;29.85;33.17;100349.76;1714674;83;25787;-73
2021/09/03 10:42:45;;;;;;;4.87;1.87;;;;;;;29.71;32.13;100355.09;1713629;83;26330;-73
2021/09/03 10:45:17;;;;;;;3.00;1.90;;;;;;;29.46;32.51;100354.94;1715667;83;25655;-71
2021/09/03 10:47:57;;;;;;;3.47;2.50;;;;;;;29.69;33.18;100348.38;1709075;83;27339;-69
2021/09/03 10:50:44;;;;;;;4.33;2.17;;;;;;;30.05;33.41;100351.59;1715053;83;25703;-68
2021/09/03 10:53:15;;;;;;;4.97;2.50;;;;;;;30.00;32.07;100354.30;1679977;85;25752;-67
2021/09/03 10:56:13;;;;;;;4.10;2.27;;;;;;;29.53;31.53;100338.83;1680357;85;26180;-67
2021/09/03 10:58:47;;;;;;;2.85;2.30;;;;;;;29.40;31.59;100341.54;1680151;84;25312;-67
2021/09/03 11:01:19;;;;;;;8.65;2.45;;;;;;;29.28;32.56;100342.27;1732212;81;27338;-70
2021/09/03 11:04:03;;;;;;;5.22;2.33;;;;;;;29.26;32.06;100334.95;1740124;82;25705;-73
2021/09/03 11:06:36;;;;;;;4.47;2.25;;;;;;;29.18;32.21;100330.78;1736409;81;25713;-69
2021/09/03 11:09:23;;;;;;;5.03;2.83;;;;;;;29.35;33.36;100320.41;1722853;83;25852;-69
2021/09/03 11:11:59;;;;;;;7.92;2.20;;;;;;;29.50;33.44;100323.61;1722930;82;25729;-68
2021/09/03 11:14:29;;;;;;;3.67;2.60;;;;;;;29.42;32.73;100323.00;1722809;83;27335;-69
2021/09/03 11:17:04;;;;;;;3.77;2.87;;;;;;;29.45;31.56;100329.09;1722812;83;26578;-69
2021/09/03 11:19:42;;;;;;;3.70;2.58;;;;;;;29.12;32.14;100321.38;1722873;83;25733;-69
2021/09/03 11:22:12;;;;;;;;;;;;;;;28.95;32.57;100315.80;1725435;83;25752;-71
2021/09/03 11:24:47;;;;;;;4.83;2.52;;;;;;;28.74;32.17;100309.36;1723000;83;25298;-68
2021/09/03 11:27:23;;;;;;;3.77;2.72;;;;;;;28.57;32.92;100305.19;1722764;83;28035;-69
2021/09/03 11:30:00;;;;;;;5.08;2.72;;;;;;;28.82;33.80;100295.45;1722668;83;25726;-69
2021/09/03 11:32:26;;;;;;;6.78;2.75;;;;;;;29.19;33.21;100292.75;1721718;83;25706;-68
2021/09/03 11:35:00;;;;;;;5.92;3.15;;;;;;;29.08;33.36;100292.20;1722785;82;25691;-71
2021/09/03 11:37:49;;;;;;;5.42;3.25;;;;;;;28.87;32.74;100293.53;1721409;83;25397;-73